sensor_id;sensor_type;location;lat;lon;timestamp;pressure;altitude;pressure_sealevel;temperature;humidity
34742;BME280;20968;42.696;23.360;2023-02-15T00:00:06;96457.84;;;3.74;69.71
34742;BME280;20968;42.696;23.360;2023-02-15T00:02:35;96463.25;;;3.81;69.53
34742;BME280;20968;42.696;23.360;2023-02-15T00:05:01;96473.06;;;3.71;69.86
34742;BME280;20968;42.696;23.360;2023-02-15T00:07:27;96459.50;;;3.64;69.43
34742;BME280;20968;42.696;23.360;2023-02-15T00:09:53;96456.03;;;3.64;69.84
34742;BME280;20968;42.696;23.360;2023-02-15T00:12:18;96467.22;;;3.69;70.14
34742;BME280;20968;42.696;23.360;2023-02-15T00:14:44;96459.44;;;3.71;70.03
34742;BME280;20968;42.696;23.360;2023-02-15T00:17:09;96466.41;;;3.76;69.99
34742;BME280;20968;42.696;23.360;2023-02-15T00:19:35;96473.78;;;3.79;69.57
34742;BME280;20968;42.696;23.360;2023-02-15T00:22:00;96472.22;;;3.78;69.85
34742;BME280;20968;42.696;23.360;2023-02-15T00:24:26;96474.09;;;3.84;70.01
34742;BME280;20968;42.696;23.360;2023-02-15T00:26:52;96478.41;;;3.82;70.46
34742;BME280;20968;42.696;23.360;2023-02-15T00:29:18;96481.94;;;3.82;69.69
34742;BME280;20968;42.696;23.360;2023-02-15T00:31:44;96481.53;;;3.80;70.04
34742;BME280;20968;42.696;23.360;2023-02-15T00:34:25;96487.34;;;3.85;70.23
34742;BME280;20968;42.696;23.360;2023-02-15T00:36:52;96487.69;;;3.87;69.69
34742;BME280;20968;42.696;23.360;2023-02-15T00:39:18;96484.66;;;3.82;69.60
34742;BME280;20968;42.696;23.360;2023-02-15T00:41:44;96477.16;;;3.89;69.83
34742;BME280;20968;42.696;23.360;2023-02-15T00:44:10;96493.50;;;3.89;70.17
34742;BME280;20968;42.696;23.360;2023-02-15T00:46:36;96481.63;;;3.70;70.20
34742;BME280;20968;42.696;23.360;2023-02-15T00:49:02;96485.09;;;3.74;69.99
34742;BME280;20968;42.696;23.360;2023-02-15T00:51:28;96485.06;;;3.77;70.49
34742;BME280;20968;42.696;23.360;2023-02-15T00:53:54;96488.13;;;3.83;70.05
34742;BME280;20968;42.696;23.360;2023-02-15T00:56:19;96486.53;;;3.85;70.09
34742;BME280;20968;42.696;23.360;2023-02-15T00:58:45;96466.34;;;3.83;69.79
34742;BME280;20968;42.696;23.360;2023-02-15T01:01:13;96482.63;;;3.89;69.45
34742;BME280;20968;42.696;23.360;2023-02-15T01:03:39;96476.38;;;3.92;69.59
34742;BME280;20968;42.696;23.360;2023-02-15T01:06:07;96475.63;;;3.88;69.65
34742;BME280;20968;42.696;23.360;2023-02-15T01:08:33;96471.03;;;3.82;69.56
34742;BME280;20968;42.696;23.360;2023-02-15T01:11:04;96477.22;;;3.83;70.06
34742;BME280;20968;42.696;23.360;2023-02-15T01:13:30;96476.16;;;3.73;69.88
34742;BME280;20968;42.696;23.360;2023-02-15T01:15:56;96476.50;;;3.79;68.95
34742;BME280;20968;42.696;23.360;2023-02-15T01:18:22;96469.88;;;3.76;69.42
34742;BME280;20968;42.696;23.360;2023-02-15T01:20:47;96465.66;;;3.75;69.16
34742;BME280;20968;42.696;23.360;2023-02-15T01:23:13;96460.69;;;3.63;69.73
34742;BME280;20968;42.696;23.360;2023-02-15T01:25:39;96471.53;;;3.67;69.95
34742;BME280;20968;42.696;23.360;2023-02-15T01:28:05;96466.09;;;3.67;69.93
34742;BME280;20968;42.696;23.360;2023-02-15T01:30:30;96467.66;;;3.64;70.50
34742;BME280;20968;42.696;23.360;2023-02-15T01:32:57;96477.34;;;3.72;69.94
34742;BME280;20968;42.696;23.360;2023-02-15T01:35:23;96450.13;;;3.69;69.57
34742;BME280;20968;42.696;23.360;2023-02-15T01:37:48;96454.16;;;3.54;70.35
34742;BME280;20968;42.696;23.360;2023-02-15T01:40:17;96458.81;;;3.57;70.56
34742;BME280;20968;42.696;23.360;2023-02-15T01:42:43;96459.25;;;3.48;70.66
34742;BME280;20968;42.696;23.360;2023-02-15T01:45:19;96454.94;;;3.51;71.29
34742;BME280;20968;42.696;23.360;2023-02-15T01:47:53;96451.84;;;3.52;70.87
34742;BME280;20968;42.696;23.360;2023-02-15T01:50:32;96447.66;;;3.41;71.00
34742;BME280;20968;42.696;23.360;2023-02-15T01:53:13;96452.25;;;3.47;71.40
34742;BME280;20968;42.696;23.360;2023-02-15T01:55:45;96444.13;;;3.44;71.34
34742;BME280;20968;42.696;23.360;2023-02-15T01:58:13;96443.31;;;3.47;71.83
34742;BME280;20968;42.696;23.360;2023-02-15T02:00:39;96442.16;;;3.48;71.74
34742;BME280;20968;42.696;23.360;2023-02-15T02:03:05;96449.47;;;3.54;71.44
34742;BME280;20968;42.696;23.360;2023-02-15T02:05:32;96450.19;;;3.62;70.94
34742;BME280;20968;42.696;23.360;2023-02-15T02:07:59;96448.66;;;3.61;70.54
34742;BME280;20968;42.696;23.360;2023-02-15T02:10:27;96440.06;;;3.62;70.82
34742;BME280;20968;42.696;23.360;2023-02-15T02:12:55;96440.44;;;3.64;71.35
34742;BME280;20968;42.696;23.360;2023-02-15T02:15:39;96445.53;;;3.59;70.83
34742;BME280;20968;42.696;23.360;2023-02-15T02:34:33;96458.44;;;3.55;71.07
34742;BME280;20968;42.696;23.360;2023-02-15T02:43:32;96453.38;;;3.50;71.05
34742;BME280;20968;42.696;23.360;2023-02-15T02:46:20;96466.97;;;3.53;71.59
34742;BME280;20968;42.696;23.360;2023-02-15T02:48:48;96456.50;;;3.52;71.13
34742;BME280;20968;42.696;23.360;2023-02-15T02:51:14;96452.22;;;3.51;71.06
34742;BME280;20968;42.696;23.360;2023-02-15T02:53:48;96460.81;;;3.46;71.25
34742;BME280;20968;42.696;23.360;2023-02-15T02:58:59;96466.56;;;3.58;70.97
34742;BME280;20968;42.696;23.360;2023-02-15T03:01:37;96467.31;;;3.59;71.06
34742;BME280;20968;42.696;23.360;2023-02-15T03:04:15;96473.97;;;3.54;71.62
34742;BME280;20968;42.696;23.360;2023-02-15T03:06:50;96475.50;;;3.59;71.06
34742;BME280;20968;42.696;23.360;2023-02-15T03:09:32;96481.31;;;3.61;70.99
34742;BME280;20968;42.696;23.360;2023-02-15T03:12:20;96486.38;;;3.59;71.56
34742;BME280;20968;42.696;23.360;2023-02-15T03:14:50;96488.28;;;3.65;70.99
34742;BME280;20968;42.696;23.360;2023-02-15T03:17:19;96487.44;;;3.75;71.60
34742;BME280;20968;42.696;23.360;2023-02-15T03:19:48;96485.50;;;3.72;nan
34742;BME280;20968;42.696;23.360;2023-02-15T03:22:20;96468.13;;;3.59;71.33
34742;BME280;20968;42.696;23.360;2023-02-15T03:25:06;96491.28;;;3.78;71.32
34742;BME280;20968;42.696;23.360;2023-02-15T03:27:38;96490.47;;;3.81;71.50
34742;BME280;20968;42.696;23.360;2023-02-15T03:30:06;96486.19;;;3.83;70.38
34742;BME280;20968;42.696;23.360;2023-02-15T03:32:34;96484.22;;;3.83;71.29
34742;BME280;20968;42.696;23.360;2023-02-15T03:35:03;96483.06;;;3.84;71.24
34742;BME280;20968;42.696;23.360;2023-02-15T03:37:40;96484.31;;;3.77;71.42
34742;BME280;20968;42.696;23.360;2023-02-15T03:40:08;96483.13;;;3.78;71.35
34742;BME280;20968;42.696;23.360;2023-02-15T03:43:04;96478.47;;;3.75;71.56
34742;BME280;20968;42.696;23.360;2023-02-15T03:45:35;96477.22;;;3.83;71.45
34742;BME280;20968;42.696;23.360;2023-02-15T03:48:05;96462.53;;;3.73;71.77
34742;BME280;20968;42.696;23.360;2023-02-15T03:50:35;96472.16;;;3.84;71.40
34742;BME280;20968;42.696;23.360;2023-02-15T03:53:21;96467.63;;;3.71;71.65
34742;BME280;20968;42.696;23.360;2023-02-15T03:55:49;96481.94;;;3.82;71.51
34742;BME280;20968;42.696;23.360;2023-02-15T03:58:15;96481.44;;;3.90;71.38
34742;BME280;20968;42.696;23.360;2023-02-15T04:01:00;96485.28;;;3.96;70.90
34742;BME280;20968;42.696;23.360;2023-02-15T04:03:55;96479.56;;;3.84;71.67
34742;BME280;20968;42.696;23.360;2023-02-15T04:06:22;96474.06;;;3.87;71.11
34742;BME280;20968;42.696;23.360;2023-02-15T04:08:47;96483.38;;;3.93;71.26
34742;BME280;20968;42.696;23.360;2023-02-15T04:11:31;96487.94;;;4.03;70.89
34742;BME280;20968;42.696;23.360;2023-02-15T04:13:57;96491.88;;;3.99;71.16
34742;BME280;20968;42.696;23.360;2023-02-15T04:16:23;96480.28;;;3.91;71.63
34742;BME280;20968;42.696;23.360;2023-02-15T04:18:48;96489.53;;;4.01;70.80
34742;BME280;20968;42.696;23.360;2023-02-15T04:21:33;96487.22;;;3.99;71.39
34742;BME280;20968;42.696;23.360;2023-02-15T04:24:17;96504.25;;;4.07;71.05
34742;BME280;20968;42.696;23.360;2023-02-15T04:27:01;96505.06;;;4.04;70.74
34742;BME280;20968;42.696;23.360;2023-02-15T04:29:28;96519.75;;;4.13;71.17
34742;BME280;20968;42.696;23.360;2023-02-15T04:31:55;96511.25;;;4.08;70.62
34742;BME280;20968;42.696;23.360;2023-02-15T04:34:21;96509.66;;;4.10;70.54
34742;BME280;20968;42.696;23.360;2023-02-15T04:36:46;96518.97;;;4.16;70.99
34742;BME280;20968;42.696;23.360;2023-02-15T04:39:13;96523.69;;;4.09;70.75
34742;BME280;20968;42.696;23.360;2023-02-15T04:41:39;96530.72;;;4.06;71.44
34742;BME280;20968;42.696;23.360;2023-02-15T04:44:05;96512.88;;;4.02;71.30
34742;BME280;20968;42.696;23.360;2023-02-15T04:46:30;96520.66;;;4.00;71.60
34742;BME280;20968;42.696;23.360;2023-02-15T04:48:56;96511.63;;;4.10;71.72
34742;BME280;20968;42.696;23.360;2023-02-15T04:51:22;96523.97;;;4.21;70.86
34742;BME280;20968;42.696;23.360;2023-02-15T04:53:47;96515.44;;;4.16;71.00
34742;BME280;20968;42.696;23.360;2023-02-15T04:56:13;96539.88;;;4.26;70.82
34742;BME280;20968;42.696;23.360;2023-02-15T04:58:38;96547.66;;;4.28;71.04
34742;BME280;20968;42.696;23.360;2023-02-15T05:01:07;96534.72;;;4.35;70.91
34742;BME280;20968;42.696;23.360;2023-02-15T05:03:33;96526.56;;;4.35;70.49
34742;BME280;20968;42.696;23.360;2023-02-15T05:05:58;96535.19;;;4.30;70.68
34742;BME280;20968;42.696;23.360;2023-02-15T05:08:24;96542.94;;;4.32;70.78
34742;BME280;20968;42.696;23.360;2023-02-15T05:10:49;96540.25;;;4.28;70.76
34742;BME280;20968;42.696;23.360;2023-02-15T05:13:15;96542.06;;;4.42;73.50
34742;BME280;20968;42.696;23.360;2023-02-15T05:15:40;96549.81;;;5.13;71.10
34742;BME280;20968;42.696;23.360;2023-02-15T05:18:06;96556.69;;;4.95;68.40
34742;BME280;20968;42.696;23.360;2023-02-15T05:20:33;96547.81;;;4.87;68.94
34742;BME280;20968;42.696;23.360;2023-02-15T05:22:58;96555.78;;;4.71;68.85
34742;BME280;20968;42.696;23.360;2023-02-15T05:25:24;96561.28;;;4.68;69.33
34742;BME280;20968;42.696;23.360;2023-02-15T05:28:10;96558.63;;;4.61;69.30
34742;BME280;20968;42.696;23.360;2023-02-15T05:30:44;96555.94;;;4.58;69.11
34742;BME280;20968;42.696;23.360;2023-02-15T05:33:10;96560.16;;;4.65;69.11
34742;BME280;20968;42.696;23.360;2023-02-15T05:35:35;96565.34;;;4.53;69.16
34742;BME280;20968;42.696;23.360;2023-02-15T05:38:01;96571.88;;;4.59;69.16
34742;BME280;20968;42.696;23.360;2023-02-15T05:40:26;96569.88;;;4.66;69.59
34742;BME280;20968;42.696;23.360;2023-02-15T05:42:52;96571.16;;;4.55;69.78
34742;BME280;20968;42.696;23.360;2023-02-15T05:45:17;96571.97;;;4.52;69.90
34742;BME280;20968;42.696;23.360;2023-02-15T05:47:43;96561.13;;;4.45;70.04
34742;BME280;20968;42.696;23.360;2023-02-15T05:50:09;96568.88;;;4.47;70.03
34742;BME280;20968;42.696;23.360;2023-02-15T05:52:35;96568.13;;;4.46;70.15
34742;BME280;20968;42.696;23.360;2023-02-15T05:55:01;96570.03;;;4.49;70.15
34742;BME280;20968;42.696;23.360;2023-02-15T05:57:27;96579.34;;;4.55;69.70
34742;BME280;20968;42.696;23.360;2023-02-15T05:59:53;96579.78;;;4.47;69.94
34742;BME280;20968;42.696;23.360;2023-02-15T06:02:18;96564.66;;;4.42;69.98
34742;BME280;20968;42.696;23.360;2023-02-15T06:04:44;96583.38;;;4.40;70.54
34742;BME280;20968;42.696;23.360;2023-02-15T06:07:09;96564.72;;;4.35;70.17
34742;BME280;20968;42.696;23.360;2023-02-15T06:09:35;96570.84;;;4.46;70.02
34742;BME280;20968;42.696;23.360;2023-02-15T06:12:00;96575.56;;;4.42;70.14
34742;BME280;20968;42.696;23.360;2023-02-15T06:14:25;96563.75;;;4.56;69.69
34742;BME280;20968;42.696;23.360;2023-02-15T06:16:51;96576.25;;;4.53;69.04
34742;BME280;20968;42.696;23.360;2023-02-15T06:19:16;96572.34;;;4.54;69.82
34742;BME280;20968;42.696;23.360;2023-02-15T06:21:42;96578.50;;;4.58;69.20
34742;BME280;20968;42.696;23.360;2023-02-15T06:24:08;96582.50;;;4.50;69.04
34742;BME280;20968;42.696;23.360;2023-02-15T06:26:34;96578.59;;;4.51;69.41
34742;BME280;20968;42.696;23.360;2023-02-15T06:28:59;96587.91;;;4.54;69.59
34742;BME280;20968;42.696;23.360;2023-02-15T06:31:25;96577.78;;;4.54;68.71
34742;BME280;20968;42.696;23.360;2023-02-15T06:33:50;96588.25;;;4.59;69.33
34742;BME280;20968;42.696;23.360;2023-02-15T06:36:16;96582.28;;;4.71;69.29
34742;BME280;20968;42.696;23.360;2023-02-15T06:38:41;96576.38;;;4.76;68.58
34742;BME280;20968;42.696;23.360;2023-02-15T06:41:07;96576.75;;;4.78;68.20
34742;BME280;20968;42.696;23.360;2023-02-15T06:43:32;96576.69;;;4.85;68.11
34742;BME280;20968;42.696;23.360;2023-02-15T06:45:59;96579.28;;;4.95;68.18
34742;BME280;20968;42.696;23.360;2023-02-15T06:48:25;96587.84;;;4.97;67.68
34742;BME280;20968;42.696;23.360;2023-02-15T06:50:50;96591.25;;;5.05;67.65
34742;BME280;20968;42.696;23.360;2023-02-15T06:53:16;96586.84;;;5.14;67.88
34742;BME280;20968;42.696;23.360;2023-02-15T06:55:41;96583.56;;;4.96;67.46
34742;BME280;20968;42.696;23.360;2023-02-15T06:58:06;96584.34;;;4.97;67.53
34742;BME280;20968;42.696;23.360;2023-02-15T07:00:32;96585.56;;;4.92;68.03
34742;BME280;20968;42.696;23.360;2023-02-15T07:02:58;96577.50;;;4.82;68.11
34742;BME280;20968;42.696;23.360;2023-02-15T07:05:27;96584.78;;;4.92;67.74
34742;BME280;20968;42.696;23.360;2023-02-15T07:07:56;96585.50;;;4.96;68.10
34742;BME280;20968;42.696;23.360;2023-02-15T07:10:22;96591.25;;;5.05;67.95
34742;BME280;20968;42.696;23.360;2023-02-15T07:12:47;96581.09;;;5.09;67.33
34742;BME280;20968;42.696;23.360;2023-02-15T07:15:15;96601.63;;;5.17;67.66
34742;BME280;20968;42.696;23.360;2023-02-15T07:17:42;96587.28;;;5.13;67.07
34742;BME280;20968;42.696;23.360;2023-02-15T07:20:20;96598.19;;;5.13;66.54
34742;BME280;20968;42.696;23.360;2023-02-15T07:22:46;96589.63;;;5.11;66.81
34742;BME280;20968;42.696;23.360;2023-02-15T07:25:13;96600.88;;;5.16;66.79
34742;BME280;20968;42.696;23.360;2023-02-15T07:27:39;96595.38;;;5.20;66.78
34742;BME280;20968;42.696;23.360;2023-02-15T07:30:06;96588.69;;;5.24;67.10
34742;BME280;20968;42.696;23.360;2023-02-15T07:32:32;96580.13;;;5.22;66.84
34742;BME280;20968;42.696;23.360;2023-02-15T07:34:59;96580.91;;;5.23;66.46
34742;BME280;20968;42.696;23.360;2023-02-15T07:37:25;96581.97;;;5.32;66.54
34742;BME280;20968;42.696;23.360;2023-02-15T07:39:50;96574.81;;;5.41;66.19
34742;BME280;20968;42.696;23.360;2023-02-15T07:42:16;96592.03;;;5.38;65.82
34742;BME280;20968;42.696;23.360;2023-02-15T07:44:43;96587.31;;;5.39;65.47
34742;BME280;20968;42.696;23.360;2023-02-15T07:47:08;96569.28;;;5.15;66.61
34742;BME280;20968;42.696;23.360;2023-02-15T07:49:34;96584.00;;;5.25;66.17
34742;BME280;20968;42.696;23.360;2023-02-15T07:52:00;96570.09;;;5.45;65.90
34742;BME280;20968;42.696;23.360;2023-02-15T07:54:27;96575.94;;;5.44;66.14
34742;BME280;20968;42.696;23.360;2023-02-15T07:56:52;96584.34;;;5.56;65.58
34742;BME280;20968;42.696;23.360;2023-02-15T07:59:18;96578.84;;;5.60;65.09
34742;BME280;20968;42.696;23.360;2023-02-15T08:01:43;96581.63;;;5.56;65.50
34742;BME280;20968;42.696;23.360;2023-02-15T08:04:09;96576.94;;;5.57;64.84
34742;BME280;20968;42.696;23.360;2023-02-15T08:06:36;96582.81;;;5.55;65.26
34742;BME280;20968;42.696;23.360;2023-02-15T08:09:07;96589.00;;;5.59;65.60
34742;BME280;20968;42.696;23.360;2023-02-15T08:11:37;96582.38;;;5.60;65.65
34742;BME280;20968;42.696;23.360;2023-02-15T08:14:15;96589.75;;;5.60;65.50
34742;BME280;20968;42.696;23.360;2023-02-15T08:16:47;96582.09;;;5.51;65.83
34742;BME280;20968;42.696;23.360;2023-02-15T08:21:52;96585.00;;;5.67;65.34
34742;BME280;20968;42.696;23.360;2023-02-15T08:24:23;96581.91;;;5.65;65.39
34742;BME280;20968;42.696;23.360;2023-02-15T08:26:49;96580.97;;;5.75;64.99
34742;BME280;20968;42.696;23.360;2023-02-15T08:29:17;96582.91;;;5.75;65.52
34742;BME280;20968;42.696;23.360;2023-02-15T08:31:43;96596.94;;;5.80;65.50
34742;BME280;20968;42.696;23.360;2023-02-15T08:34:10;96592.59;;;5.83;65.41
34742;BME280;20968;42.696;23.360;2023-02-15T08:36:36;96579.25;;;5.88;65.43
34742;BME280;20968;42.696;23.360;2023-02-15T08:39:04;96592.69;;;6.02;65.41
34742;BME280;20968;42.696;23.360;2023-02-15T08:41:34;96591.22;;;6.20;64.03
34742;BME280;20968;42.696;23.360;2023-02-15T08:44:03;96590.72;;;6.29;64.52
34742;BME280;20968;42.696;23.360;2023-02-15T08:46:31;96589.69;;;6.42;63.81
34742;BME280;20968;42.696;23.360;2023-02-15T08:48:58;96597.75;;;6.53;62.07
34742;BME280;20968;42.696;23.360;2023-02-15T08:51:26;96597.00;;;6.49;61.87
34742;BME280;20968;42.696;23.360;2023-02-15T08:53:56;96600.06;;;6.54;61.80
34742;BME280;20968;42.696;23.360;2023-02-15T08:56:25;96593.28;;;6.39;61.40
34742;BME280;20968;42.696;23.360;2023-02-15T08:58:53;96596.59;;;6.27;61.02
34742;BME280;20968;42.696;23.360;2023-02-15T09:01:26;96590.59;;;6.13;61.81
34742;BME280;20968;42.696;23.360;2023-02-15T09:03:56;96601.56;;;6.10;61.37
34742;BME280;20968;42.696;23.360;2023-02-15T09:06:23;96594.88;;;6.14;61.22
34742;BME280;20968;42.696;23.360;2023-02-15T09:08:49;96592.47;;;6.16;60.58
34742;BME280;20968;42.696;23.360;2023-02-15T09:11:23;96596.91;;;6.07;60.93
34742;BME280;20968;42.696;23.360;2023-02-15T09:13:53;96584.03;;;6.07;61.18
34742;BME280;20968;42.696;23.360;2023-02-15T09:16:19;96591.28;;;6.17;60.75
34742;BME280;20968;42.696;23.360;2023-02-15T09:18:46;96594.38;;;6.19;60.06
34742;BME280;20968;42.696;23.360;2023-02-15T09:21:22;96589.69;;;6.19;60.11
34742;BME280;20968;42.696;23.360;2023-02-15T09:23:50;96589.81;;;6.35;60.24
34742;BME280;20968;42.696;23.360;2023-02-15T09:26:19;96587.00;;;6.39;59.80
34742;BME280;20968;42.696;23.360;2023-02-15T09:28:45;96587.63;;;6.50;59.34
34742;BME280;20968;42.696;23.360;2023-02-15T09:33:39;96601.84;;;6.64;59.58
34742;BME280;20968;42.696;23.360;2023-02-15T09:36:06;96589.88;;;6.55;59.40
34742;BME280;20968;42.696;23.360;2023-02-15T09:38:38;96594.63;;;6.51;59.75
34742;BME280;20968;42.696;23.360;2023-02-15T09:50:05;96585.88;;;6.59;59.46
34742;BME280;20968;42.696;23.360;2023-02-15T10:09:58;96586.53;;;7.09;58.38
34742;BME280;20968;42.696;23.360;2023-02-15T10:28:42;96568.25;;;7.02;57.72
34742;BME280;20968;42.696;23.360;2023-02-15T10:31:24;96551.81;;;6.83;58.31
34742;BME280;20968;42.696;23.360;2023-02-15T10:34:12;96561.81;;;6.93;58.37
34742;BME280;20968;42.696;23.360;2023-02-15T10:42:12;96550.19;;;7.44;56.49
34742;BME280;20968;42.696;23.360;2023-02-15T10:45:07;96558.06;;;7.42;56.51
34742;BME280;20968;42.696;23.360;2023-02-15T10:53:26;96540.94;;;7.18;56.70
34742;BME280;20968;42.696;23.360;2023-02-15T11:06:59;96532.88;;;7.98;55.02
34742;BME280;20968;42.696;23.360;2023-02-15T11:09:36;96545.16;;;7.93;54.36
34742;BME280;20968;42.696;23.360;2023-02-15T11:12:07;96539.16;;;7.82;54.54
34742;BME280;20968;42.696;23.360;2023-02-15T11:14:43;96525.25;;;7.38;55.02
34742;BME280;20968;42.696;23.360;2023-02-15T11:17:14;96538.88;;;7.42;56.22
34742;BME280;20968;42.696;23.360;2023-02-15T11:22:22;96531.34;;;7.81;54.73
34742;BME280;20968;42.696;23.360;2023-02-15T11:24:48;96517.81;;;7.74;54.44
34742;BME280;20968;42.696;23.360;2023-02-15T11:27:26;96522.56;;;7.54;55.63
34742;BME280;20968;42.696;23.360;2023-02-15T11:30:01;96532.94;;;7.78;55.79
34742;BME280;20968;42.696;23.360;2023-02-15T11:32:37;96520.53;;;7.90;53.93
34742;BME280;20968;42.696;23.360;2023-02-15T11:40:03;96527.94;;;8.09;53.07
34742;BME280;20968;42.696;23.360;2023-02-15T11:42:37;96531.03;;;8.11;53.77
34742;BME280;20968;42.696;23.360;2023-02-15T11:45:19;96530.50;;;8.00;54.29
34742;BME280;20968;42.696;23.360;2023-02-15T11:47:46;96521.78;;;8.05;54.48
34742;BME280;20968;42.696;23.360;2023-02-15T11:50:19;96507.97;;;7.92;54.07
34742;BME280;20968;42.696;23.360;2023-02-15T11:52:50;96497.25;;;7.98;53.74
34742;BME280;20968;42.696;23.360;2023-02-15T11:55:22;96510.72;;;8.08;53.60
34742;BME280;20968;42.696;23.360;2023-02-15T11:58:02;96502.91;;;8.23;53.08
34742;BME280;20968;42.696;23.360;2023-02-15T12:00:33;96496.06;;;8.31;53.54
34742;BME280;20968;42.696;23.360;2023-02-15T12:03:04;96497.31;;;8.42;53.46
34742;BME280;20968;42.696;23.360;2023-02-15T12:05:34;96485.69;;;8.38;52.74
34742;BME280;20968;42.696;23.360;2023-02-15T12:08:03;96503.59;;;8.43;52.72
34742;BME280;20968;42.696;23.360;2023-02-15T12:10:44;96500.28;;;8.63;52.41
34742;BME280;20968;42.696;23.360;2023-02-15T12:13:18;96479.94;;;8.89;51.59
34742;BME280;20968;42.696;23.360;2023-02-15T12:15:50;96487.56;;;8.69;51.22
34742;BME280;20968;42.696;23.360;2023-02-15T12:20:59;96480.59;;;8.81;51.52
34742;BME280;20968;42.696;23.360;2023-02-15T12:23:28;96477.28;;;8.86;51.48
34742;BME280;20968;42.696;23.360;2023-02-15T12:25:56;96469.59;;;8.81;51.25
34742;BME280;20968;42.696;23.360;2023-02-15T12:28:32;96476.06;;;8.74;51.59
34742;BME280;20968;42.696;23.360;2023-02-15T12:30:58;96468.09;;;8.64;51.45
34742;BME280;20968;42.696;23.360;2023-02-15T12:35:57;96467.06;;;8.74;52.10
34742;BME280;20968;42.696;23.360;2023-02-15T12:38:25;96477.00;;;8.96;51.73
34742;BME280;20968;42.696;23.360;2023-02-15T12:41:10;96453.38;;;8.86;51.86
34742;BME280;20968;42.696;23.360;2023-02-15T12:43:46;96449.09;;;8.57;51.88
34742;BME280;20968;42.696;23.360;2023-02-15T12:46:24;96454.63;;;8.69;50.93
34742;BME280;20968;42.696;23.360;2023-02-15T12:49:07;96451.44;;;8.71;51.95
34742;BME280;20968;42.696;23.360;2023-02-15T12:51:44;96455.13;;;8.80;50.71
34742;BME280;20968;42.696;23.360;2023-02-15T12:56:47;96443.00;;;8.78;50.96
34742;BME280;20968;42.696;23.360;2023-02-15T12:59:14;96437.50;;;8.78;50.95
34742;BME280;20968;42.696;23.360;2023-02-15T13:01:45;96441.78;;;8.79;50.93
34742;BME280;20968;42.696;23.360;2023-02-15T13:06:48;96441.69;;;8.82;49.95
34742;BME280;20968;42.696;23.360;2023-02-15T13:09:26;96447.59;;;9.09;50.53
34742;BME280;20968;42.696;23.360;2023-02-15T13:12:16;96429.59;;;9.21;49.62
34742;BME280;20968;42.696;23.360;2023-02-15T13:14:47;96435.50;;;9.19;49.67
34742;BME280;20968;42.696;23.360;2023-02-15T13:17:16;96432.03;;;9.43;48.86
34742;BME280;20968;42.696;23.360;2023-02-15T13:19:49;96434.31;;;9.32;49.64
34742;BME280;20968;42.696;23.360;2023-02-15T13:22:21;96423.66;;;9.22;49.21
34742;BME280;20968;42.696;23.360;2023-02-15T13:24:53;96422.56;;;9.32;49.74
34742;BME280;20968;42.696;23.360;2023-02-15T13:27:22;96430.91;;;9.28;49.75
34742;BME280;20968;42.696;23.360;2023-02-15T13:29:56;96433.34;;;9.39;49.71
34742;BME280;20968;42.696;23.360;2023-02-15T13:34:57;96424.88;;;9.58;48.83
34742;BME280;20968;42.696;23.360;2023-02-15T13:42:51;96428.38;;;9.71;49.26
34742;BME280;20968;42.696;23.360;2023-02-15T14:15:52;96473.97;;;9.19;50.40
34742;BME280;20968;42.696;23.360;2023-02-15T14:23:31;96476.00;;;8.90;51.57
34742;BME280;20968;42.696;23.360;2023-02-15T14:26:10;96464.75;;;8.85;50.62
34742;BME280;20968;42.696;23.360;2023-02-15T14:31:18;96474.84;;;8.75;51.97
34742;BME280;20968;42.696;23.360;2023-02-15T14:33:54;96468.56;;;8.62;52.30
34742;BME280;20968;42.696;23.360;2023-02-15T14:36:20;96480.09;;;8.70;52.86
34742;BME280;20968;42.696;23.360;2023-02-15T14:39:13;96471.41;;;8.59;52.87
34742;BME280;20968;42.696;23.360;2023-02-15T14:42:30;96469.25;;;8.50;52.53
34742;BME280;20968;42.696;23.360;2023-02-15T14:45:00;96473.22;;;8.50;53.42
34742;BME280;20968;42.696;23.360;2023-02-15T14:47:44;96457.72;;;8.43;52.58
34742;BME280;20968;42.696;23.360;2023-02-15T14:53:15;96463.31;;;8.24;53.70
34742;BME280;20968;42.696;23.360;2023-02-15T14:55:41;96459.63;;;8.14;53.29
34742;BME280;20968;42.696;23.360;2023-02-15T14:58:15;96469.13;;;8.10;54.03
34742;BME280;20968;42.696;23.360;2023-02-15T15:00:41;96467.41;;;8.00;54.20
34742;BME280;20968;42.696;23.360;2023-02-15T15:03:12;96453.03;;;7.80;54.51
34742;BME280;20968;42.696;23.360;2023-02-15T15:05:53;96454.50;;;7.69;55.25
34742;BME280;20968;42.696;23.360;2023-02-15T15:08:28;96460.91;;;7.62;55.26
34742;BME280;20968;42.696;23.360;2023-02-15T15:10:56;96450.97;;;7.52;55.51
34742;BME280;20968;42.696;23.360;2023-02-15T15:13:56;96444.97;;;7.41;55.21
34742;BME280;20968;42.696;23.360;2023-02-15T15:16:50;96450.53;;;7.38;55.21
34742;BME280;20968;42.696;23.360;2023-02-15T15:22:19;96456.41;;;7.20;56.02
34742;BME280;20968;42.696;23.360;2023-02-15T15:24:49;96461.88;;;7.20;56.34
34742;BME280;20968;42.696;23.360;2023-02-15T15:48:38;96476.31;;;6.66;58.39
34742;BME280;20968;42.696;23.360;2023-02-15T15:51:19;96477.91;;;6.64;58.51
34742;BME280;20968;42.696;23.360;2023-02-15T15:53:47;96473.22;;;6.45;58.96
34742;BME280;20968;42.696;23.360;2023-02-15T15:56:31;96485.50;;;6.56;58.99
34742;BME280;20968;42.696;23.360;2023-02-15T15:59:01;96478.88;;;6.54;59.06
34742;BME280;20968;42.696;23.360;2023-02-15T16:01:34;96481.25;;;6.32;59.50
34742;BME280;20968;42.696;23.360;2023-02-15T16:04:00;96484.34;;;6.34;59.50
34742;BME280;20968;42.696;23.360;2023-02-15T16:06:32;96482.81;;;6.33;59.58
34742;BME280;20968;42.696;23.360;2023-02-15T16:09:13;96476.81;;;6.19;59.98
34742;BME280;20968;42.696;23.360;2023-02-15T16:11:42;96475.03;;;6.09;60.66
34742;BME280;20968;42.696;23.360;2023-02-15T16:14:13;96491.31;;;6.16;60.01
34742;BME280;20968;42.696;23.360;2023-02-15T16:16:40;96488.69;;;6.09;60.64
34742;BME280;20968;42.696;23.360;2023-02-15T16:19:14;96480.03;;;6.14;60.91
34742;BME280;20968;42.696;23.360;2023-02-15T16:21:40;96488.25;;;6.14;60.84